Time;durP1;ratioP1;P1;durP2;ratioP2;P2;SDS_P1;SDS_P2;PMS_P1;PMS_P2;Temp;Humidity;BMP_temperature;BMP_pressure;BME280_temperature;BME280_humidity;BME280_pressure;Samples;Min_cycle;Max_cycle;Signal;HPM_P1;HPM_P2
2023/08/18 00:01:59;;;;;;;17.23;15.43;;;18.90;99.90;;;;;;4988943;28;38325;-75
2023/08/18 00:04:25;;;;;;;19.83;17.67;;;18.90;99.90;;;;;;4983653;28;37673;-74
2023/08/18 00:06:52;;;;;;;18.77;16.98;;;18.90;99.90;;;;;;4981867;28;39716;-75
2023/08/18 00:09:18;;;;;;;19.63;17.17;;;18.80;99.90;;;;;;4987109;28;39143;-74
2023/08/18 00:11:44;;;;;;;18.88;16.67;;;18.80;99.90;;;;;;4988287;28;36820;-75
2023/08/18 00:14:10;;;;;;;17.77;16.00;;;18.80;99.90;;;;;;4987651;28;37080;-74
2023/08/18 00:16:36;;;;;;;18.35;16.25;;;18.80;99.90;;;;;;4988388;28;38823;-74
2023/08/18 00:19:02;;;;;;;19.77;15.70;;;18.80;99.90;;;;;;5005507;28;37164;-74
2023/08/18 00:21:28;;;;;;;17.33;15.45;;;18.80;99.90;;;;;;4985861;28;37855;-74
2023/08/18 00:23:54;;;;;;;17.00;15.30;;;18.90;99.90;;;;;;4985808;28;37778;-74
2023/08/18 00:26:20;;;;;;;19.48;15.85;;;18.80;99.90;;;;;;4984404;28;38951;-74
2023/08/18 00:28:46;;;;;;;16.40;14.73;;;18.80;99.90;;;;;;4985760;28;38187;-75
2023/08/18 00:31:13;;;;;;;17.52;15.05;;;18.80;99.90;;;;;;4986435;28;37765;-74
2023/08/18 00:33:39;;;;;;;15.98;14.48;;;18.80;99.90;;;;;;4985893;28;37087;-74
2023/08/18 00:36:05;;;;;;;15.52;14.02;;;18.80;99.90;;;;;;4986199;28;39567;-75
2023/08/18 00:38:31;;;;;;;16.85;15.05;;;18.90;99.90;;;;;;4987358;28;37513;-74
2023/08/18 00:40:57;;;;;;;14.65;13.20;;;18.90;99.90;;;;;;4995968;28;37145;-74
2023/08/18 00:43:24;;;;;;;14.85;13.35;;;18.80;99.90;;;;;;5002564;28;36131;-75
2023/08/18 00:45:53;;;;;;;17.30;15.40;;;18.80;99.90;;;;;;4985833;28;37754;-74
2023/08/18 00:48:19;;;;;;;14.65;13.15;;;18.80;99.90;;;;;;4987170;28;38126;-74
2023/08/18 00:50:45;;;;;;;17.75;13.43;;;18.80;99.90;;;;;;4986967;28;37447;-74
2023/08/18 00:53:11;;;;;;;15.38;13.35;;;18.80;99.90;;;;;;4985485;28;36161;-74
2023/08/18 00:55:39;;;;;;;12.98;11.73;;;18.70;99.90;;;;;;4985770;28;37974;-75
2023/08/18 00:58:06;;;;;;;14.25;12.85;;;18.70;99.90;;;;;;5010445;28;37429;-74
2023/08/18 01:03:14;;;;;;;14.90;13.40;;;18.70;99.90;;;;;;5204162;23;20059;-75
2023/08/18 01:05:41;;;;;;;15.50;13.40;;;18.70;99.90;;;;;;4978525;28;39691;-75
2023/08/18 01:08:07;;;;;;;14.63;13.00;;;18.60;99.90;;;;;;4980709;28;39073;-75
2023/08/18 01:10:51;;;;;;;13.00;11.70;;;18.60;99.90;;;;;;4987309;28;38376;-75
2023/08/18 01:13:48;;;;;;;13.30;11.82;;;18.70;99.90;;;;;;4993556;28;37269;-75
2023/08/18 01:16:27;;;;;;;13.75;12.27;;;18.70;99.90;;;;;;4975252;28;38242;-76
2023/08/18 01:18:54;;;;;;;17.13;12.68;;;18.70;99.90;;;;;;4985847;28;37381;-75
2023/08/18 01:21:23;;;;;;;11.63;10.57;;;18.70;99.90;;;;;;4983931;28;37277;-75
2023/08/18 01:23:49;;;;;;;13.15;11.80;;;18.70;99.90;;;;;;4983721;28;37551;-76
2023/08/18 01:26:16;;;;;;;13.13;11.82;;;18.70;99.90;;;;;;4985100;28;38717;-75
2023/08/18 01:28:44;;;;;;;11.25;10.15;;;18.70;99.90;;;;;;4987896;28;39434;-75
2023/08/18 01:31:14;;;;;;;13.05;11.73;;;18.70;99.90;;;;;;4980777;28;38706;-75
2023/08/18 01:33:48;;;;;;;12.48;11.23;;;18.70;99.90;;;;;;4984135;28;36007;-76
2023/08/18 01:36:22;;;;;;;13.15;11.70;;;18.60;99.90;;;;;;4994546;28;40042;-75
2023/08/18 01:38:51;;;;;;;12.35;11.15;;;18.60;99.90;;;;;;4987551;28;38914;-75
2023/08/18 01:41:22;;;;;;;11.77;10.57;;;18.60;99.90;;;;;;4987591;28;38412;-75
2023/08/18 01:43:48;;;;;;;12.80;11.50;;;18.60;99.90;;;;;;4988387;28;36452;-76
2023/08/18 01:46:14;;;;;;;11.48;10.00;;;18.60;99.90;;;;;;4981843;28;37757;-75
2023/08/18 01:48:40;;;;;;;11.50;10.30;;;18.60;99.90;;;;;;4985040;28;38769;-75
2023/08/18 01:51:06;;;;;;;11.68;10.48;;;18.50;99.90;;;;;;4987666;28;39482;-75
2023/08/18 01:53:32;;;;;;;14.63;10.95;;;18.50;99.90;;;;;;4989100;28;37099;-76
2023/08/18 01:56:02;;;;;;;12.27;10.27;;;18.50;99.90;;;;;;4983507;28;37638;-75
2023/08/18 01:58:29;;;;;;;11.68;10.48;;;18.50;99.90;;;;;;4983518;28;47019;-76
2023/08/18 02:00:56;;;;;;;12.90;11.43;;;18.50;99.90;;;;;;4984987;28;37188;-76
2023/08/18 02:03:23;;;;;;;14.27;10.50;;;18.50;99.90;;;;;;4976708;28;37653;-76
2023/08/18 02:05:52;;;;;;;11.68;10.32;;;18.50;99.90;;;;;;4981874;28;39079;-75
2023/08/18 02:08:19;;;;;;;12.20;10.90;;;18.50;99.90;;;;;;4984552;28;37272;-75
2023/08/18 02:10:45;;;;;;;12.10;10.93;;;18.50;99.90;;;;;;4988149;28;37781;-76
2023/08/18 02:13:11;;;;;;;11.90;10.70;;;18.40;99.90;;;;;;4984798;28;36331;-76
2023/08/18 02:15:37;;;;;;;11.38;10.27;;;18.40;99.90;;;;;;4986948;28;39715;-76
2023/08/18 02:18:04;;;;;;;11.18;10.00;;;18.40;99.90;;;;;;4983620;28;37421;-76
2023/08/18 02:20:30;;;;;;;11.70;10.48;;;18.40;99.90;;;;;;4985911;28;38040;-76
2023/08/18 02:22:56;;;;;;;12.50;10.68;;;18.40;99.90;;;;;;4986343;28;37672;-75
2023/08/18 02:25:23;;;;;;;11.57;10.48;;;18.40;99.90;;;;;;4984735;28;39386;-77
2023/08/18 02:27:49;;;;;;;10.52;9.52;;;18.40;99.90;;;;;;4987087;28;38966;-77
2023/08/18 02:30:16;;;;;;;12.57;10.75;;;18.40;99.90;;;;;;4989431;28;38031;-76
2023/08/18 02:32:42;;;;;;;12.57;10.27;;;18.40;99.90;;;;;;4991244;28;37829;-76
2023/08/18 02:35:09;;;;;;;11.30;10.20;;;18.40;99.90;;;;;;4987839;28;37971;-76
2023/08/18 02:37:35;;;;;;;11.10;9.95;;;18.40;99.90;;;;;;4986630;28;38606;-76
2023/08/18 02:40:01;;;;;;;12.57;10.32;;;18.30;99.90;;;;;;4984145;28;36871;-76
2023/08/18 02:42:27;;;;;;;11.43;10.23;;;18.30;99.90;;;;;;4989851;28;37519;-76
2023/08/18 02:44:53;;;;;;;12.07;10.10;;;18.30;99.90;;;;;;4994487;28;38649;-76
2023/08/18 02:47:19;;;;;;;10.60;9.60;;;18.20;99.90;;;;;;4987772;28;39065;-77
2023/08/18 02:49:47;;;;;;;11.70;10.50;;;18.20;99.90;;;;;;4991683;28;39003;-77
2023/08/18 02:52:13;;;;;;;12.60;10.93;;;18.10;99.90;;;;;;4989465;28;36369;-77
2023/08/18 02:54:39;;;;;;;11.77;10.48;;;18.20;99.90;;;;;;4987576;28;37764;-75
2023/08/18 02:57:05;;;;;;;11.82;10.73;;;18.10;99.90;;;;;;4986530;28;37405;-76
2023/08/18 02:59:31;;;;;;;12.23;10.93;;;18.10;99.90;;;;;;4989861;28;38381;-76
2023/08/18 03:01:58;;;;;;;11.27;10.18;;;18.00;99.90;;;;;;4989601;28;36660;-76
2023/08/18 03:04:25;;;;;;;12.77;11.48;;;18.00;99.90;;;;;;4990048;28;39360;-75
2023/08/18 03:06:51;;;;;;;12.55;11.25;;;18.00;99.90;;;;;;4986924;28;37183;-76
2023/08/18 03:09:17;;;;;;;10.60;9.55;;;18.00;99.90;;;;;;4987573;28;37200;-76
2023/08/18 03:11:46;;;;;;;10.90;9.90;;;17.90;99.90;;;;;;4986038;28;37450;-77
2023/08/18 03:14:13;;;;;;;13.48;12.07;;;17.90;99.90;;;;;;4987818;28;38737;-76
2023/08/18 03:16:39;;;;;;;13.38;11.90;;;17.90;99.90;;;;;;4987033;28;38042;-76
2023/08/18 03:19:05;;;;;;;14.10;12.63;;;17.90;99.90;;;;;;4988289;28;37992;-76
2023/08/18 03:21:31;;;;;;;13.23;11.70;;;17.90;99.90;;;;;;4991385;28;37854;-76
2023/08/18 03:23:57;;;;;;;12.23;11.10;;;17.90;99.90;;;;;;4997945;28;38891;-76
2023/08/18 03:26:24;;;;;;;11.48;9.82;;;17.90;99.90;;;;;;4993499;28;37557;-75
2023/08/18 03:28:52;;;;;;;13.55;12.10;;;17.90;99.90;;;;;;4979752;28;38240;-76
2023/08/18 03:31:18;;;;;;;14.90;11.88;;;17.90;99.90;;;;;;4989851;28;37153;-77
2023/08/18 03:33:47;;;;;;;12.82;10.95;;;17.90;99.90;;;;;;4989332;28;38998;-77
2023/08/18 03:36:13;;;;;;;12.60;11.45;;;17.90;99.90;;;;;;5001957;28;37217;-77
2023/08/18 03:38:42;;;;;;;12.02;10.82;;;17.90;99.90;;;;;;4984346;28;37008;-77
2023/08/18 03:41:10;;;;;;;13.73;12.32;;;17.90;99.90;;;;;;4983852;28;38551;-77
2023/08/18 03:43:37;;;;;;;13.50;11.48;;;17.90;99.90;;;;;;4989206;28;37529;-77
2023/08/18 03:46:28;;;;;;;13.40;12.05;;;17.80;99.90;;;;;;4985979;28;38241;-77
2023/08/18 03:48:55;;;;;;;12.43;11.13;;;17.80;99.90;;;;;;4988749;28;37745;-76
2023/08/18 03:51:21;;;;;;;15.02;13.13;;;17.70;99.90;;;;;;4986999;28;36380;-77
2023/08/18 03:53:47;;;;;;;12.70;11.48;;;17.70;99.90;;;;;;4988703;28;37512;-77
2023/08/18 03:56:14;;;;;;;12.15;10.80;;;17.70;99.90;;;;;;4985884;28;38453;-76
2023/08/18 03:58:40;;;;;;;13.05;11.75;;;17.70;99.90;;;;;;4986636;28;37859;-76
2023/08/18 04:01:10;;;;;;;11.80;10.73;;;17.70;99.90;;;;;;4987520;28;36190;-77
2023/08/18 04:03:38;;;;;;;13.07;11.32;;;17.70;99.90;;;;;;4984347;28;38008;-76
2023/08/18 04:06:05;;;;;;;12.07;10.88;;;17.70;99.90;;;;;;4986989;28;38764;-76
2023/08/18 04:08:38;;;;;;;14.55;12.85;;;17.70;99.90;;;;;;4981316;28;38718;-76
2023/08/18 04:11:04;;;;;;;14.80;12.15;;;17.70;99.90;;;;;;4986375;28;36825;-76
2023/08/18 04:13:31;;;;;;;13.65;12.15;;;17.70;99.90;;;;;;4985042;28;38082;-76
2023/08/18 04:15:57;;;;;;;13.90;12.50;;;17.80;99.90;;;;;;4985441;28;37151;-76
2023/08/18 04:18:24;;;;;;;14.00;12.57;;;17.80;99.90;;;;;;4987311;28;37637;-77
2023/08/18 04:20:50;;;;;;;12.85;11.70;;;17.80;99.90;;;;;;4987884;28;36370;-76
2023/08/18 04:23:16;;;;;;;14.20;12.88;;;17.80;99.90;;;;;;4987222;28;38987;-76
2023/08/18 04:25:43;;;;;;;14.38;12.88;;;17.80;99.90;;;;;;4987895;28;38212;-76
2023/08/18 04:28:10;;;;;;;15.10;13.60;;;17.80;99.90;;;;;;4986148;28;37040;-76
2023/08/18 04:30:36;;;;;;;19.25;15.23;;;17.80;99.90;;;;;;4982534;28;36306;-76
2023/08/18 04:33:03;;;;;;;16.50;13.55;;;17.80;99.90;;;;;;4986469;28;38823;-76
2023/08/18 04:35:29;;;;;;;15.15;13.63;;;17.80;99.90;;;;;;4986899;28;37461;-76
2023/08/18 04:37:55;;;;;;;16.67;14.98;;;17.80;99.90;;;;;;4986539;28;38281;-76
2023/08/18 04:40:23;;;;;;;18.42;15.68;;;17.80;99.90;;;;;;4977983;28;37897;-76
2023/08/18 04:42:49;;;;;;;18.33;14.23;;;17.80;99.90;;;;;;4986146;28;38892;-76
2023/08/18 04:45:15;;;;;;;16.20;14.07;;;17.70;99.90;;;;;;4987684;28;38124;-76
2023/08/18 04:47:41;;;;;;;17.77;13.63;;;17.70;99.90;;;;;;4987977;28;37089;-76
2023/08/18 04:50:08;;;;;;;15.88;14.32;;;17.70;99.90;;;;;;4983790;28;37105;-76
2023/08/18 04:52:34;;;;;;;17.20;15.23;;;17.70;99.90;;;;;;4987931;28;38868;-76
2023/08/18 04:55:01;;;;;;;15.15;13.55;;;17.70;99.90;;;;;;4982350;28;38008;-77
2023/08/18 04:57:27;;;;;;;15.77;13.65;;;17.70;99.90;;;;;;4987115;28;38677;-76
2023/08/18 04:59:53;;;;;;;14.40;13.00;;;17.80;99.90;;;;;;4984216;28;37638;-76
2023/08/18 05:02:19;;;;;;;16.52;13.95;;;17.80;99.90;;;;;;4983973;28;37850;-75
2023/08/18 05:04:45;;;;;;;16.58;14.85;;;17.80;99.90;;;;;;4981824;28;38973;-76
2023/08/18 05:07:11;;;;;;;15.65;14.05;;;17.70;99.90;;;;;;4978484;28;37015;-75
2023/08/18 05:09:37;;;;;;;14.95;12.05;;;17.70;99.90;;;;;;4981128;28;37402;-74
2023/08/18 05:12:07;;;;;;;17.02;14.95;;;17.80;99.90;;;;;;4987193;28;38760;-74
2023/08/18 05:14:34;;;;;;;16.42;14.30;;;17.80;99.90;;;;;;4986066;28;38048;-77
2023/08/18 05:17:03;;;;;;;18.33;14.15;;;17.80;99.90;;;;;;4985232;28;38730;-76
2023/08/18 05:19:29;;;;;;;16.08;13.65;;;17.80;99.90;;;;;;4953013;28;46966;-76
2023/08/18 05:21:56;;;;;;;15.32;13.70;;;17.70;99.90;;;;;;4986312;28;37476;-76
2023/08/18 05:24:22;;;;;;;15.38;13.00;;;17.80;99.90;;;;;;4982799;28;38210;-77
2023/08/18 05:26:48;;;;;;;15.40;12.95;;;17.80;99.90;;;;;;4980805;28;39085;-76
2023/08/18 05:29:14;;;;;;;16.35;13.57;;;17.70;99.90;;;;;;4987692;28;37698;-76
2023/08/18 05:31:40;;;;;;;16.48;14.73;;;17.70;99.90;;;;;;4982114;28;40092;-77
2023/08/18 05:34:06;;;;;;;16.85;15.05;;;17.70;99.90;;;;;;4985274;28;37238;-77
2023/08/18 05:36:32;;;;;;;16.00;14.35;;;17.60;99.90;;;;;;4980995;28;38044;-78
2023/08/18 05:38:58;;;;;;;17.83;15.18;;;17.60;99.90;;;;;;4976181;28;37606;-77
2023/08/18 05:41:25;;;;;;;17.00;14.18;;;17.60;99.90;;;;;;4962430;28;38628;-77
2023/08/18 05:43:51;;;;;;;15.48;13.88;;;17.70;99.90;;;;;;4965190;28;37128;-77
2023/08/18 05:46:17;;;;;;;15.25;13.18;;;17.70;99.90;;;;;;4970566;28;37729;-77
2023/08/18 05:48:43;;;;;;;16.50;13.82;;;17.80;99.90;;;;;;4970098;28;37248;-78
2023/08/18 05:51:09;;;;;;;15.73;13.88;;;17.80;99.90;;;;;;4972394;28;41369;-77
2023/08/18 05:53:35;;;;;;;16.85;14.52;;;17.80;99.90;;;;;;4971716;28;38297;-77
2023/08/18 05:56:02;;;;;;;18.35;16.23;;;17.80;99.90;;;;;;4975057;28;38068;-76
2023/08/18 05:58:28;;;;;;;19.60;15.70;;;17.80;99.90;;;;;;4970299;28;47322;-77
2023/08/18 06:00:54;;;;;;;17.73;15.75;;;17.80;99.90;;;;;;4970937;28;37604;-77
2023/08/18 06:03:21;;;;;;;17.65;15.68;;;17.80;99.90;;;;;;4972133;28;37220;-77
2023/08/18 06:05:47;;;;;;;16.23;14.63;;;17.80;99.90;;;;;;4969527;28;38304;-78
2023/08/18 06:08:14;;;;;;;16.35;14.65;;;17.90;99.90;;;;;;4972304;28;37725;-77
2023/08/18 06:10:41;;;;;;;14.80;13.30;;;18.10;99.90;;;;;;4973374;28;39847;-77
2023/08/18 06:13:07;;;;;;;15.10;13.60;;;18.10;99.90;;;;;;4974935;28;37399;-77
2023/08/18 06:15:33;;;;;;;15.88;14.25;;;18.20;99.90;;;;;;4974284;28;38163;-77
2023/08/18 06:17:59;;;;;;;14.73;13.30;;;18.20;99.90;;;;;;4972757;28;38510;-77
2023/08/18 06:20:25;;;;;;;14.25;12.85;;;18.20;99.90;;;;;;4972687;28;38682;-76
2023/08/18 06:22:52;;;;;;;15.15;13.55;;;18.10;99.90;;;;;;4976922;28;38081;-77
2023/08/18 06:25:18;;;;;;;13.65;12.25;;;18.20;99.90;;;;;;4973223;28;38229;-76
2023/08/18 06:27:44;;;;;;;15.15;13.13;;;18.10;99.90;;;;;;4968546;28;37978;-77
2023/08/18 06:30:11;;;;;;;13.82;12.05;;;18.20;99.90;;;;;;4970268;28;38370;-76
2023/08/18 06:32:37;;;;;;;16.17;13.27;;;18.10;99.90;;;;;;4975181;28;38243;-76
2023/08/18 06:35:04;;;;;;;12.90;11.52;;;18.10;99.90;;;;;;4972953;28;37336;-76
2023/08/18 06:37:30;;;;;;;13.15;11.48;;;18.10;99.90;;;;;;4970184;28;37062;-76
2023/08/18 06:39:56;;;;;;;13.93;12.15;;;18.10;99.90;;;;;;4970028;28;37723;-74
2023/08/18 06:42:22;;;;;;;13.40;12.00;;;18.10;99.90;;;;;;4969956;28;39194;-76
2023/08/18 06:44:48;;;;;;;13.40;11.95;;;18.00;99.90;;;;;;4971589;28;38067;-77
2023/08/18 06:47:14;;;;;;;15.02;11.27;;;18.10;99.90;;;;;;4973318;28;37351;-76
2023/08/18 06:49:40;;;;;;;14.40;12.80;;;18.10;99.90;;;;;;4966265;28;38535;-75
2023/08/18 06:52:06;;;;;;;17.23;12.20;;;18.20;99.90;;;;;;4964349;28;37410;-76
2023/08/18 06:54:33;;;;;;;14.68;12.43;;;18.20;99.90;;;;;;4969303;28;38192;-76
2023/08/18 06:56:59;;;;;;;14.07;12.52;;;18.20;99.90;;;;;;4966961;28;36613;-76
2023/08/18 06:59:26;;;;;;;14.95;12.18;;;18.40;99.90;;;;;;4968970;28;40805;-76
2023/08/18 07:01:53;;;;;;;15.32;12.57;;;18.40;99.90;;;;;;4972720;28;41130;-76
2023/08/18 07:04:19;;;;;;;13.98;12.40;;;18.50;99.90;;;;;;4970785;28;36748;-76
2023/08/18 07:06:45;;;;;;;13.00;11.70;;;18.70;99.90;;;;;;4970354;28;37743;-75
2023/08/18 07:09:12;;;;;;;13.25;11.90;;;18.80;99.90;;;;;;4970056;28;39418;-75
2023/08/18 07:11:38;;;;;;;14.73;12.27;;;18.90;99.90;;;;;;4975378;28;40101;-75
2023/08/18 07:14:04;;;;;;;15.25;12.73;;;19.10;99.90;;;;;;4972787;28;37733;-75
2023/08/18 07:16:31;;;;;;;13.27;11.15;;;19.10;99.90;;;;;;4973999;28;37582;-75
2023/08/18 07:18:57;;;;;;;14.32;12.45;;;19.20;99.90;;;;;;4975776;28;38588;-76
2023/08/18 07:21:23;;;;;;;13.77;12.32;;;19.30;99.90;;;;;;4975286;28;38607;-76
2023/08/18 07:23:49;;;;;;;17.15;12.55;;;19.50;99.90;;;;;;4970371;28;36902;-76
2023/08/18 07:26:16;;;;;;;14.63;12.32;;;19.50;99.90;;;;;;4975889;28;36339;-76
2023/08/18 07:28:43;;;;;;;12.38;11.00;;;19.70;99.90;;;;;;4969928;28;38050;-76
2023/08/18 07:31:10;;;;;;;13.38;11.50;;;19.80;99.90;;;;;;4973506;28;37905;-76
2023/08/18 07:33:39;;;;;;;14.82;11.85;;;20.00;99.90;;;;;;4972642;28;37577;-76
2023/08/18 07:36:05;;;;;;;16.15;13.88;;;19.90;99.90;;;;;;4971717;28;36464;-76
2023/08/18 07:38:34;;;;;;;15.82;12.30;;;19.80;99.90;;;;;;4974970;28;40065;-76
2023/08/18 07:41:00;;;;;;;17.13;13.77;;;19.80;99.90;;;;;;4974722;28;38770;-76
2023/08/18 07:43:27;;;;;;;18.30;13.73;;;19.80;99.90;;;;;;4970919;28;47789;-76
2023/08/18 07:45:53;;;;;;;18.83;15.13;;;20.00;99.90;;;;;;4974851;28;38879;-76
2023/08/18 07:48:19;;;;;;;21.30;14.13;;;20.20;99.90;;;;;;4970593;28;38601;-75
2023/08/18 07:50:45;;;;;;;17.63;13.55;;;20.20;99.90;;;;;;4968611;28;38586;-73
2023/08/18 07:53:11;;;;;;;17.40;13.52;;;20.30;99.90;;;;;;4970331;28;37302;-74
2023/08/18 07:55:37;;;;;;;21.23;14.07;;;20.30;99.90;;;;;;4972327;28;37749;-74
2023/08/18 07:58:04;;;;;;;21.10;14.68;;;20.40;99.90;;;;;;4965483;28;38568;-75
2023/08/18 08:00:32;;;;;;;23.15;16.50;;;20.60;99.90;;;;;;4967848;28;37592;-77
2023/08/18 08:02:59;;;;;;;24.13;16.50;;;20.60;99.90;;;;;;4969393;28;38387;-75
2023/08/18 08:05:26;;;;;;;27.50;18.02;;;20.60;99.90;;;;;;4968779;28;36725;-75
2023/08/18 08:07:52;;;;;;;28.13;18.25;;;20.60;99.90;;;;;;4971600;28;38283;-76
2023/08/18 08:10:18;;;;;;;25.83;18.52;;;20.60;99.90;;;;;;4968940;28;37494;-78
2023/08/18 08:12:48;;;;;;;24.60;16.75;;;20.90;99.90;;;;;;4972305;28;20051;-75
2023/08/18 08:15:14;;;;;;;23.27;17.58;;;21.10;99.90;;;;;;4964306;28;36525;-75
2023/08/18 08:17:41;;;;;;;21.65;16.27;;;21.30;99.90;;;;;;4968337;28;37792;-76
2023/08/18 08:20:15;;;;;;;24.65;17.67;;;21.50;99.90;;;;;;4971472;28;37470;-76
2023/08/18 08:22:48;;;;;;;25.02;15.73;;;21.80;99.90;;;;;;4965134;28;38489;-76
2023/08/18 08:25:15;;;;;;;20.08;16.08;;;21.70;99.90;;;;;;4970444;28;37651;-76
2023/08/18 08:27:42;;;;;;;23.65;16.45;;;21.70;99.90;;;;;;4967794;28;39536;-76
2023/08/18 08:30:11;;;;;;;21.38;16.88;;;21.70;99.90;;;;;;4972151;28;39035;-74
2023/08/18 08:32:37;;;;;;;20.10;16.35;;;21.70;99.90;;;;;;4970062;28;38480;-76
2023/08/18 08:35:03;;;;;;;20.40;15.70;;;21.40;99.90;;;;;;4963335;28;36364;-75
2023/08/18 08:37:29;;;;;;;19.95;15.85;;;21.40;99.90;;;;;;4968299;28;39390;-75
2023/08/18 08:39:56;;;;;;;23.73;18.33;;;21.50;99.90;;;;;;4971844;28;37153;-77
2023/08/18 08:42:24;;;;;;;19.98;16.33;;;21.40;99.90;;;;;;4969258;28;38465;-76
2023/08/18 08:44:51;;;;;;;22.65;18.67;;;21.30;99.90;;;;;;4980874;28;36224;-77
2023/08/18 08:47:20;;;;;;;22.95;17.02;;;21.30;99.90;;;;;;4962754;28;39670;-76
2023/08/18 08:49:53;;;;;;;22.10;17.10;;;21.20;99.90;;;;;;4966394;28;38762;-76
2023/08/18 08:52:20;;;;;;;20.63;16.48;;;21.50;99.90;;;;;;4966099;28;38544;-77
2023/08/18 08:54:52;;;;;;;19.55;15.52;;;21.70;99.90;;;;;;4967592;28;36792;-76
2023/08/18 08:57:22;;;;;;;18.58;15.60;;;22.00;99.90;;;;;;4965743;28;39852;-76
2023/08/18 08:59:49;;;;;;;19.70;16.48;;;22.00;99.90;;;;;;4973819;28;38475;-76
2023/08/18 09:02:15;;;;;;;19.13;16.40;;;21.90;99.90;;;;;;4978346;28;39987;-77
2023/08/18 09:04:41;;;;;;;21.65;16.83;;;21.90;99.90;;;;;;4965944;28;34347;-78
2023/08/18 09:07:10;;;;;;;18.33;15.15;;;22.00;99.90;;;;;;4971580;28;37810;-79
2023/08/18 09:09:37;;;;;;;16.00;14.32;;;22.00;99.90;;;;;;4964214;28;37779;-75
2023/08/18 09:12:07;;;;;;;16.05;13.95;;;22.00;99.90;;;;;;4961857;28;37123;-74
2023/08/18 09:14:43;;;;;;;21.65;16.60;;;22.20;99.90;;;;;;4965020;28;38024;-74
2023/08/18 09:17:09;;;;;;;17.85;14.75;;;22.40;99.90;;;;;;4970958;28;37420;-74
2023/08/18 09:19:37;;;;;;;19.35;16.08;;;22.50;99.90;;;;;;4974064;28;37949;-74
2023/08/18 09:22:04;;;;;;;19.98;16.13;;;22.50;99.90;;;;;;4969874;28;38209;-76
2023/08/18 09:24:32;;;;;;;20.73;16.77;;;22.30;99.90;;;;;;4971155;28;37441;-75
2023/08/18 09:27:05;;;;;;;22.08;16.15;;;22.10;99.90;;;;;;4966143;28;39236;-76
2023/08/18 09:29:33;;;;;;;18.40;15.45;;;22.10;99.90;;;;;;4974058;28;48445;-75
2023/08/18 09:31:59;;;;;;;20.35;15.35;;;22.20;99.90;;;;;;4971675;28;38741;-74
2023/08/18 09:34:25;;;;;;;18.83;15.48;;;22.30;99.90;;;;;;4968808;28;36225;-74
2023/08/18 09:36:52;;;;;;;19.48;15.85;;;22.30;99.90;;;;;;4968455;28;40114;-74
2023/08/18 09:39:20;;;;;;;17.52;14.65;;;22.10;99.90;;;;;;4969121;28;38200;-74
2023/08/18 09:41:53;;;;;;;18.02;16.08;;;22.20;99.90;;;;;;4967081;28;38184;-74
2023/08/18 09:44:20;;;;;;;16.85;14.70;;;22.50;99.90;;;;;;4970379;28;36863;-74
2023/08/18 09:46:59;;;;;;;21.48;17.05;;;22.70;99.90;;;;;;4964667;28;37948;-74
2023/08/18 09:49:26;;;;;;;18.95;15.52;;;23.00;99.90;;;;;;4971597;28;38982;-76
2023/08/18 09:51:58;;;;;;;18.98;15.60;;;22.90;99.90;;;;;;4971796;28;36773;-74
2023/08/18 09:54:28;;;;;;;18.73;15.50;;;22.80;99.90;;;;;;4967559;28;38244;-74
2023/08/18 09:57:02;;;;;;;20.05;16.10;;;23.10;99.90;;;;;;4967599;28;37844;-74
2023/08/18 09:59:35;;;;;;;18.77;14.52;;;23.00;99.90;;;;;;4962084;28;48669;-74
2023/08/18 10:02:05;;;;;;;16.83;15.00;;;23.10;99.90;;;;;;4983389;28;37481;-75
2023/08/18 10:04:41;;;;;;;20.10;16.38;;;22.90;99.90;;;;;;4965449;28;36303;-74
2023/08/18 10:07:08;;;;;;;21.05;16.52;;;22.90;99.90;;;;;;4962829;28;39466;-74
2023/08/18 10:09:35;;;;;;;19.42;16.50;;;22.90;99.90;;;;;;4967411;28;39432;-76
2023/08/18 10:12:02;;;;;;;22.88;17.52;;;23.00;99.90;;;;;;4958255;28;37167;-76
2023/08/18 10:14:30;;;;;;;23.52;17.27;;;23.10;99.90;;;;;;4965225;28;35609;-75
2023/08/18 10:16:57;;;;;;;23.42;17.63;;;23.20;99.90;;;;;;4970589;28;38993;-75
2023/08/18 10:19:49;;;;;;;24.27;16.67;;;23.20;99.90;;;;;;4962893;28;37671;-76
2023/08/18 10:22:17;;;;;;;20.88;17.55;;;23.40;99.90;;;;;;4964850;28;37771;-76
2023/08/18 10:24:47;;;;;;;23.08;15.68;;;23.40;99.90;;;;;;4970751;28;37710;-75
2023/08/18 10:27:29;;;;;;;21.63;16.95;;;23.60;99.90;;;;;;4975620;28;39564;-74
2023/08/18 10:29:59;;;;;;;23.05;17.38;;;23.70;99.90;;;;;;4971937;28;37361;-74
2023/08/18 10:32:27;;;;;;;21.92;15.55;;;23.90;99.90;;;;;;4971115;28;39066;-75
2023/08/18 10:35:23;;;;;;;19.42;15.02;;;24.00;99.90;;;;;;4970369;28;38137;-75
2023/08/18 10:37:58;;;;;;;24.08;16.33;;;24.20;99.90;;;;;;4967088;28;49609;-75
2023/08/18 10:40:33;;;;;;;22.17;16.52;;;24.30;99.90;;;;;;4967327;28;38477;-75
2023/08/18 10:43:14;;;;;;;24.35;17.38;;;24.50;99.90;;;;;;4962126;28;37648;-75
2023/08/18 10:45:48;;;;;;;24.40;17.33;;;24.80;99.90;;;;;;4965379;28;47311;-76
2023/08/18 10:48:14;;;;;;;22.27;17.52;;;24.90;99.90;;;;;;4973334;28;37774;-74
2023/08/18 10:50:44;;;;;;;20.38;16.77;;;24.80;98.50;;;;;;4975421;28;39129;-74
2023/08/18 10:53:13;;;;;;;25.30;18.55;;;24.80;99.90;;;;;;4972148;28;37545;-75
2023/08/18 10:55:43;;;;;;;28.33;20.15;;;25.00;99.90;;;;;;4967849;28;39338;-76
2023/08/18 10:58:09;;;;;;;21.77;16.67;;;25.30;99.00;;;;;;4971627;28;37579;-76
2023/08/18 11:00:36;;;;;;;24.88;19.25;;;24.90;99.90;;;;;;4972707;28;37191;-75
2023/08/18 11:03:05;;;;;;;21.60;16.08;;;24.70;99.90;;;;;;4970641;28;39158;-75
2023/08/18 11:05:32;;;;;;;22.15;16.25;;;24.90;99.90;;;;;;4970160;28;39942;-75
2023/08/18 11:07:59;;;;;;;20.88;16.63;;;25.40;99.90;;;;;;4972363;28;38585;-79
2023/08/18 11:10:26;;;;;;;18.65;15.23;;;25.70;99.90;;;;;;4971579;28;37953;-79
2023/08/18 11:12:55;;;;;;;19.33;16.65;;;25.70;99.70;;;;;;4971017;28;39349;-74
2023/08/18 11:15:22;;;;;;;25.20;19.50;;;25.40;98.90;;;;;;4969530;28;38388;-78
2023/08/18 11:17:49;;;;;;;20.73;17.38;;;25.10;98.20;;;;;;4974142;28;39751;-79
2023/08/18 11:20:16;;;;;;;22.05;17.23;;;25.10;99.90;;;;;;4967559;28;37605;-77
2023/08/18 11:22:47;;;;;;;16.67;14.98;;;25.20;99.90;;;;;;4971259;28;37297;-78
2023/08/18 11:25:14;;;;;;;17.10;15.32;;;25.40;99.90;;;;;;4969838;28;38494;-78
2023/08/18 11:27:42;;;;;;;21.63;18.73;;;25.60;99.90;;;;;;4969016;28;38631;-78
2023/08/18 11:30:10;;;;;;;24.33;18.90;;;25.40;98.70;;;;;;4972683;28;37822;-78
2023/08/18 11:32:37;;;;;;;21.15;17.95;;;25.20;99.90;;;;;;4977938;28;37723;-78
2023/08/18 11:35:07;;;;;;;20.05;16.55;;;25.20;99.90;;;;;;4974837;28;37435;-78
2023/08/18 11:37:41;;;;;;;18.70;15.98;;;25.50;99.90;;;;;;4974001;28;49033;-78
2023/08/18 11:40:12;;;;;;;19.67;16.40;;;25.80;99.90;;;;;;4972419;28;37624;-77
2023/08/18 11:42:46;;;;;;;21.73;18.42;;;26.10;91.70;;;;;;4975879;28;38040;-78
2023/08/18 11:45:20;;;;;;;19.33;16.02;;;26.20;91.40;;;;;;4971793;28;36429;-77
2023/08/18 11:48:07;;;;;;;21.13;18.98;;;26.10;99.90;;;;;;4977773;28;38133;-78
2023/08/18 11:50:35;;;;;;;19.80;16.77;;;25.90;97.20;;;;;;4975014;28;47392;-74
2023/08/18 11:53:03;;;;;;;19.98;17.38;;;25.50;99.90;;;;;;4974500;28;38018;-78
2023/08/18 11:55:35;;;;;;;22.38;20.10;;;25.30;99.90;;;;;;4972602;28;47485;-77
2023/08/18 11:58:14;;;;;;;20.40;18.02;;;25.30;99.90;;;;;;4967785;28;37985;-77
2023/08/18 12:00:45;;;;;;;21.35;19.13;;;25.50;99.90;;;;;;4973670;28;47151;-77
2023/08/18 12:03:25;;;;;;;23.00;20.67;;;25.90;97.40;;;;;;4975185;28;37634;-78
2023/08/18 12:05:53;;;;;;;22.00;19.70;;;25.90;99.90;;;;;;4975768;28;37999;-78
2023/08/18 12:08:20;;;;;;;25.33;22.60;;;26.00;95.50;;;;;;4971318;28;38852;-77
2023/08/18 12:10:52;;;;;;;23.83;21.42;;;25.60;99.50;;;;;;4974301;28;37362;-78
2023/08/18 12:13:18;;;;;;;20.73;18.42;;;25.40;99.90;;;;;;4972514;28;36724;-77
2023/08/18 12:15:44;;;;;;;21.92;19.83;;;25.50;99.90;;;;;;4971292;28;38009;-78
2023/08/18 12:18:10;;;;;;;23.40;20.73;;;25.60;96.00;;;;;;4966964;28;38523;-77
2023/08/18 12:20:36;;;;;;;24.60;22.13;;;25.60;98.70;;;;;;4975991;28;39614;-77
2023/08/18 12:23:05;;;;;;;24.23;21.85;;;25.60;99.90;;;;;;4972302;28;37781;-77
2023/08/18 12:25:31;;;;;;;24.20;21.67;;;25.20;99.90;;;;;;4974299;28;36061;-78
2023/08/18 12:27:58;;;;;;;23.17;20.83;;;25.10;99.90;;;;;;4969581;28;38084;-78
2023/08/18 12:30:25;;;;;;;20.10;17.42;;;25.30;99.90;;;;;;4969395;28;38217;-78
2023/08/18 12:32:52;;;;;;;21.98;19.77;;;25.60;99.90;;;;;;4971441;28;38656;-78
2023/08/18 12:35:18;;;;;;;23.48;21.13;;;25.70;99.90;;;;;;4974810;28;36203;-78